EKSP/SKS METAR and TAF weather

Enter ICAO airport designator
Station Type Date Time Source
EKSP METAR 2021/09/25 11:50 UTC NOAA

EKSP 251150Z 31007KT 9999 FEW026 BKN200 17/12 Q1014


Station Type Date Time Source
EKSP Decoded METAR 2021/09/25 11:50 UTC NOAA

Skrydstrup, Denmark (EKSP) 55-14N 009-16E 47M
Sep 25, 2021 - 07:50 AM EDT / 2021.09.25 1150 UTC
Wind: from the NW (310 degrees) at 8 MPH (7 KT):0
Visibility: greater than 7 mile(s):0
Sky conditions: mostly cloudy
Temperature: 62 F (17 C)
Dew Point: 53 F (12 C)
Relative Humidity: 72%
Pressure (altimeter): 29.94 in. Hg (1014 hPa)
ob: EKSP 251150Z 31007KT 9999 FEW026 BKN200 17/12 Q1014
cycle: 12

Station Type Date Time Source
EKSP TAF 2021/09/25 12:30 UTC NOAA

TAF EKSP 251103Z 2512/2612 28010KT 9999 BKN025
BECMG 2518/2520 VRB03KT
BECMG 2603/2606 12010KT
TEMPO 2606/2609 4000 -RADZ BKN010

Example: see airport list